sensor_id;sensor_type;location;lat;lon;timestamp;P1;durP1;ratioP1;P2;durP2;ratioP2
69256;SDS011;56376;53.356;-1.748;2023-12-20T00:01:31;12.80;;;4.13;;
69256;SDS011;56376;53.356;-1.748;2023-12-20T00:03:57;14.10;;;3.23;;
69256;SDS011;56376;53.356;-1.748;2023-12-20T00:06:22;17.27;;;3.33;;
69256;SDS011;56376;53.356;-1.748;2023-12-20T00:08:48;18.00;;;3.33;;
69256;SDS011;56376;53.356;-1.748;2023-12-20T00:11:13;16.20;;;4.10;;
69256;SDS011;56376;53.356;-1.748;2023-12-20T00:13:39;13.30;;;3.07;;
69256;SDS011;56376;53.356;-1.748;2023-12-20T00:16:04;10.97;;;3.03;;
69256;SDS011;56376;53.356;-1.748;2023-12-20T00:18:30;13.07;;;3.83;;
69256;SDS011;56376;53.356;-1.748;2023-12-20T00:23:40;12.05;;;3.58;;
69256;SDS011;56376;53.356;-1.748;2023-12-20T00:26:05;11.47;;;2.83;;
69256;SDS011;56376;53.356;-1.748;2023-12-20T00:28:31;12.43;;;3.27;;
69256;SDS011;56376;53.356;-1.748;2023-12-20T00:30:56;14.70;;;3.97;;
69256;SDS011;56376;53.356;-1.748;2023-12-20T00:33:22;14.77;;;3.58;;
69256;SDS011;56376;53.356;-1.748;2023-12-20T00:35:47;16.77;;;3.65;;
69256;SDS011;56376;53.356;-1.748;2023-12-20T00:38:13;11.85;;;3.13;;
69256;SDS011;56376;53.356;-1.748;2023-12-20T00:40:39;13.30;;;3.63;;
69256;SDS011;56376;53.356;-1.748;2023-12-20T00:43:05;13.90;;;3.70;;
69256;SDS011;56376;53.356;-1.748;2023-12-20T00:45:30;14.17;;;3.20;;
69256;SDS011;56376;53.356;-1.748;2023-12-20T00:47:56;15.43;;;4.53;;
69256;SDS011;56376;53.356;-1.748;2023-12-20T00:52:50;13.90;;;3.28;;
69256;SDS011;56376;53.356;-1.748;2023-12-20T00:55:15;14.07;;;3.20;;
69256;SDS011;56376;53.356;-1.748;2023-12-20T00:57:41;15.63;;;3.80;;
69256;SDS011;56376;53.356;-1.748;2023-12-20T01:00:06;13.63;;;3.35;;
69256;SDS011;56376;53.356;-1.748;2023-12-20T01:02:34;16.27;;;3.30;;
69256;SDS011;56376;53.356;-1.748;2023-12-20T01:05:00;21.90;;;4.03;;
69256;SDS011;56376;53.356;-1.748;2023-12-20T01:07:25;9.15;;;2.67;;
69256;SDS011;56376;53.356;-1.748;2023-12-20T01:09:53;13.02;;;3.80;;
69256;SDS011;56376;53.356;-1.748;2023-12-20T01:12:19;12.67;;;3.50;;
69256;SDS011;56376;53.356;-1.748;2023-12-20T01:14:45;12.63;;;3.37;;
69256;SDS011;56376;53.356;-1.748;2023-12-20T01:17:11;13.17;;;3.90;;
69256;SDS011;56376;53.356;-1.748;2023-12-20T01:19:37;17.03;;;3.20;;
69256;SDS011;56376;53.356;-1.748;2023-12-20T01:22:03;14.07;;;3.42;;
69256;SDS011;56376;53.356;-1.748;2023-12-20T01:24:29;12.50;;;4.23;;
69256;SDS011;56376;53.356;-1.748;2023-12-20T01:26:54;12.00;;;3.83;;
69256;SDS011;56376;53.356;-1.748;2023-12-20T01:29:20;13.63;;;3.20;;
69256;SDS011;56376;53.356;-1.748;2023-12-20T01:31:45;17.73;;;4.13;;
69256;SDS011;56376;53.356;-1.748;2023-12-20T01:34:11;16.75;;;4.13;;
69256;SDS011;56376;53.356;-1.748;2023-12-20T01:36:37;15.17;;;4.43;;
69256;SDS011;56376;53.356;-1.748;2023-12-20T01:39:02;14.00;;;3.73;;
69256;SDS011;56376;53.356;-1.748;2023-12-20T01:41:30;17.30;;;3.38;;
69256;SDS011;56376;53.356;-1.748;2023-12-20T01:43:55;14.13;;;3.55;;
69256;SDS011;56376;53.356;-1.748;2023-12-20T01:46:21;14.23;;;3.53;;
69256;SDS011;56376;53.356;-1.748;2023-12-20T01:48:47;13.65;;;3.03;;
69256;SDS011;56376;53.356;-1.748;2023-12-20T01:51:13;10.47;;;3.20;;
69256;SDS011;56376;53.356;-1.748;2023-12-20T01:53:39;14.23;;;2.88;;
69256;SDS011;56376;53.356;-1.748;2023-12-20T01:56:06;17.33;;;3.27;;
69256;SDS011;56376;53.356;-1.748;2023-12-20T01:58:32;15.73;;;4.03;;
69256;SDS011;56376;53.356;-1.748;2023-12-20T02:00:59;14.68;;;3.90;;
69256;SDS011;56376;53.356;-1.748;2023-12-20T02:03:24;17.02;;;4.53;;
69256;SDS011;56376;53.356;-1.748;2023-12-20T02:05:50;18.42;;;3.92;;
69256;SDS011;56376;53.356;-1.748;2023-12-20T02:08:16;16.10;;;3.55;;
69256;SDS011;56376;53.356;-1.748;2023-12-20T02:10:41;22.48;;;3.75;;
69256;SDS011;56376;53.356;-1.748;2023-12-20T02:13:08;17.25;;;3.42;;
69256;SDS011;56376;53.356;-1.748;2023-12-20T02:15:33;11.65;;;3.60;;
69256;SDS011;56376;53.356;-1.748;2023-12-20T02:17:58;17.45;;;3.30;;
69256;SDS011;56376;53.356;-1.748;2023-12-20T02:20:24;13.88;;;4.80;;
69256;SDS011;56376;53.356;-1.748;2023-12-20T02:22:50;14.50;;;4.25;;
69256;SDS011;56376;53.356;-1.748;2023-12-20T02:25:15;19.88;;;4.68;;
69256;SDS011;56376;53.356;-1.748;2023-12-20T02:27:41;14.45;;;5.13;;
69256;SDS011;56376;53.356;-1.748;2023-12-20T02:30:09;15.83;;;4.40;;
69256;SDS011;56376;53.356;-1.748;2023-12-20T02:32:35;17.05;;;4.68;;
69256;SDS011;56376;53.356;-1.748;2023-12-20T02:35:00;16.23;;;4.03;;
69256;SDS011;56376;53.356;-1.748;2023-12-20T02:37:26;17.93;;;4.30;;
69256;SDS011;56376;53.356;-1.748;2023-12-20T02:39:52;14.05;;;4.85;;
69256;SDS011;56376;53.356;-1.748;2023-12-20T02:42:17;16.92;;;4.03;;
69256;SDS011;56376;53.356;-1.748;2023-12-20T02:44:43;11.30;;;3.22;;
69256;SDS011;56376;53.356;-1.748;2023-12-20T02:47:08;17.05;;;3.50;;
69256;SDS011;56376;53.356;-1.748;2023-12-20T02:49:34;17.33;;;3.70;;
69256;SDS011;56376;53.356;-1.748;2023-12-20T02:51:59;20.93;;;4.80;;
69256;SDS011;56376;53.356;-1.748;2023-12-20T02:54:25;16.58;;;3.83;;
69256;SDS011;56376;53.356;-1.748;2023-12-20T02:56:50;13.30;;;3.70;;
69256;SDS011;56376;53.356;-1.748;2023-12-20T02:59:15;19.27;;;4.53;;
69256;SDS011;56376;53.356;-1.748;2023-12-20T03:01:41;14.23;;;3.60;;
69256;SDS011;56376;53.356;-1.748;2023-12-20T03:04:08;13.97;;;3.43;;
69256;SDS011;56376;53.356;-1.748;2023-12-20T03:06:34;10.70;;;3.15;;
69256;SDS011;56376;53.356;-1.748;2023-12-20T03:08:59;13.70;;;3.33;;
69256;SDS011;56376;53.356;-1.748;2023-12-20T03:11:28;18.90;;;4.37;;
69256;SDS011;56376;53.356;-1.748;2023-12-20T03:13:54;10.65;;;4.32;;
69256;SDS011;56376;53.356;-1.748;2023-12-20T03:16:20;12.85;;;3.67;;
69256;SDS011;56376;53.356;-1.748;2023-12-20T03:18:46;11.67;;;3.63;;
69256;SDS011;56376;53.356;-1.748;2023-12-20T03:21:11;14.90;;;3.75;;
69256;SDS011;56376;53.356;-1.748;2023-12-20T03:23:37;11.87;;;3.30;;
69256;SDS011;56376;53.356;-1.748;2023-12-20T03:26:02;15.33;;;3.60;;
69256;SDS011;56376;53.356;-1.748;2023-12-20T03:28:29;11.53;;;3.23;;
69256;SDS011;56376;53.356;-1.748;2023-12-20T03:30:57;13.05;;;3.45;;
69256;SDS011;56376;53.356;-1.748;2023-12-20T03:33:23;18.13;;;3.60;;
69256;SDS011;56376;53.356;-1.748;2023-12-20T03:35:48;11.80;;;3.67;;
69256;SDS011;56376;53.356;-1.748;2023-12-20T03:38:13;17.85;;;4.57;;
69256;SDS011;56376;53.356;-1.748;2023-12-20T03:40:39;15.05;;;3.75;;
69256;SDS011;56376;53.356;-1.748;2023-12-20T03:43:05;16.30;;;3.65;;
69256;SDS011;56376;53.356;-1.748;2023-12-20T03:45:30;12.25;;;3.08;;
69256;SDS011;56376;53.356;-1.748;2023-12-20T03:47:56;14.13;;;4.00;;
69256;SDS011;56376;53.356;-1.748;2023-12-20T03:50:22;12.75;;;3.38;;
69256;SDS011;56376;53.356;-1.748;2023-12-20T03:52:48;12.20;;;3.07;;
69256;SDS011;56376;53.356;-1.748;2023-12-20T03:55:13;16.65;;;3.95;;
69256;SDS011;56376;53.356;-1.748;2023-12-20T03:57:39;14.60;;;3.72;;
69256;SDS011;56376;53.356;-1.748;2023-12-20T04:00:06;20.73;;;5.28;;
69256;SDS011;56376;53.356;-1.748;2023-12-20T04:02:39;16.00;;;4.33;;
69256;SDS011;56376;53.356;-1.748;2023-12-20T04:05:05;10.38;;;3.33;;
69256;SDS011;56376;53.356;-1.748;2023-12-20T04:07:32;12.63;;;3.85;;
69256;SDS011;56376;53.356;-1.748;2023-12-20T04:09:58;14.07;;;3.45;;
69256;SDS011;56376;53.356;-1.748;2023-12-20T04:12:24;14.17;;;4.47;;
69256;SDS011;56376;53.356;-1.748;2023-12-20T04:14:49;12.77;;;2.70;;
69256;SDS011;56376;53.356;-1.748;2023-12-20T04:17:15;13.80;;;3.40;;
69256;SDS011;56376;53.356;-1.748;2023-12-20T04:19:42;14.75;;;3.90;;
69256;SDS011;56376;53.356;-1.748;2023-12-20T04:22:08;11.25;;;2.65;;
69256;SDS011;56376;53.356;-1.748;2023-12-20T04:24:34;14.45;;;4.20;;
69256;SDS011;56376;53.356;-1.748;2023-12-20T04:26:59;14.70;;;3.22;;
69256;SDS011;56376;53.356;-1.748;2023-12-20T04:29:25;11.85;;;2.58;;
69256;SDS011;56376;53.356;-1.748;2023-12-20T04:31:51;11.20;;;3.42;;
69256;SDS011;56376;53.356;-1.748;2023-12-20T04:34:17;15.98;;;2.90;;
69256;SDS011;56376;53.356;-1.748;2023-12-20T04:36:42;12.93;;;4.00;;
69256;SDS011;56376;53.356;-1.748;2023-12-20T04:39:08;11.73;;;2.80;;
69256;SDS011;56376;53.356;-1.748;2023-12-20T04:41:34;12.37;;;2.90;;
69256;SDS011;56376;53.356;-1.748;2023-12-20T04:43:59;11.02;;;3.53;;
69256;SDS011;56376;53.356;-1.748;2023-12-20T04:46:25;10.45;;;3.33;;
69256;SDS011;56376;53.356;-1.748;2023-12-20T04:48:51;19.42;;;4.32;;
69256;SDS011;56376;53.356;-1.748;2023-12-20T04:51:17;8.60;;;3.05;;
69256;SDS011;56376;53.356;-1.748;2023-12-20T04:53:43;12.68;;;2.90;;
69256;SDS011;56376;53.356;-1.748;2023-12-20T04:56:08;14.35;;;3.08;;
69256;SDS011;56376;53.356;-1.748;2023-12-20T04:58:34;11.32;;;3.33;;
69256;SDS011;56376;53.356;-1.748;2023-12-20T05:00:59;14.13;;;3.75;;
69256;SDS011;56376;53.356;-1.748;2023-12-20T05:03:25;14.77;;;3.50;;
69256;SDS011;56376;53.356;-1.748;2023-12-20T05:05:50;7.80;;;1.98;;
69256;SDS011;56376;53.356;-1.748;2023-12-20T05:08:16;10.95;;;3.03;;
69256;SDS011;56376;53.356;-1.748;2023-12-20T05:10:41;16.35;;;3.35;;
69256;SDS011;56376;53.356;-1.748;2023-12-20T05:13:07;12.95;;;2.70;;
69256;SDS011;56376;53.356;-1.748;2023-12-20T05:15:33;13.90;;;3.03;;
69256;SDS011;56376;53.356;-1.748;2023-12-20T05:17:58;16.85;;;3.55;;
69256;SDS011;56376;53.356;-1.748;2023-12-20T05:20:25;8.15;;;2.42;;
69256;SDS011;56376;53.356;-1.748;2023-12-20T05:22:50;17.10;;;3.70;;
69256;SDS011;56376;53.356;-1.748;2023-12-20T05:25:16;9.48;;;3.03;;
69256;SDS011;56376;53.356;-1.748;2023-12-20T05:27:41;10.82;;;2.28;;
69256;SDS011;56376;53.356;-1.748;2023-12-20T05:30:07;10.43;;;2.70;;
69256;SDS011;56376;53.356;-1.748;2023-12-20T05:32:33;15.23;;;3.45;;
69256;SDS011;56376;53.356;-1.748;2023-12-20T05:34:58;8.30;;;2.97;;
69256;SDS011;56376;53.356;-1.748;2023-12-20T05:37:24;10.55;;;2.67;;
69256;SDS011;56376;53.356;-1.748;2023-12-20T05:39:49;13.60;;;3.05;;
69256;SDS011;56376;53.356;-1.748;2023-12-20T05:42:15;8.77;;;2.88;;
69256;SDS011;56376;53.356;-1.748;2023-12-20T05:44:40;12.68;;;2.65;;
69256;SDS011;56376;53.356;-1.748;2023-12-20T05:47:06;12.02;;;2.85;;
69256;SDS011;56376;53.356;-1.748;2023-12-20T05:49:31;10.70;;;2.83;;
69256;SDS011;56376;53.356;-1.748;2023-12-20T05:51:57;13.60;;;4.03;;
69256;SDS011;56376;53.356;-1.748;2023-12-20T05:54:22;16.65;;;3.20;;
69256;SDS011;56376;53.356;-1.748;2023-12-20T05:56:48;11.18;;;3.15;;
69256;SDS011;56376;53.356;-1.748;2023-12-20T05:59:15;13.18;;;3.53;;
69256;SDS011;56376;53.356;-1.748;2023-12-20T06:01:40;11.93;;;2.72;;
69256;SDS011;56376;53.356;-1.748;2023-12-20T06:04:06;11.65;;;3.08;;
69256;SDS011;56376;53.356;-1.748;2023-12-20T06:06:31;13.90;;;3.13;;
69256;SDS011;56376;53.356;-1.748;2023-12-20T06:08:56;14.45;;;2.95;;
69256;SDS011;56376;53.356;-1.748;2023-12-20T06:11:22;11.25;;;3.17;;
69256;SDS011;56376;53.356;-1.748;2023-12-20T06:13:48;10.93;;;3.58;;
69256;SDS011;56376;53.356;-1.748;2023-12-20T06:16:16;8.55;;;2.35;;
69256;SDS011;56376;53.356;-1.748;2023-12-20T06:18:42;14.52;;;3.65;;
69256;SDS011;56376;53.356;-1.748;2023-12-20T06:21:07;11.10;;;4.22;;
69256;SDS011;56376;53.356;-1.748;2023-12-20T06:23:33;9.32;;;2.17;;
69256;SDS011;56376;53.356;-1.748;2023-12-20T06:25:58;15.45;;;3.03;;
69256;SDS011;56376;53.356;-1.748;2023-12-20T06:28:24;10.48;;;2.88;;
69256;SDS011;56376;53.356;-1.748;2023-12-20T06:30:49;8.13;;;2.78;;
69256;SDS011;56376;53.356;-1.748;2023-12-20T06:33:17;7.13;;;2.35;;
69256;SDS011;56376;53.356;-1.748;2023-12-20T06:35:43;12.38;;;2.90;;
69256;SDS011;56376;53.356;-1.748;2023-12-20T06:38:09;11.68;;;2.60;;
69256;SDS011;56376;53.356;-1.748;2023-12-20T06:40:34;13.50;;;3.17;;
69256;SDS011;56376;53.356;-1.748;2023-12-20T06:43:00;11.35;;;3.03;;
69256;SDS011;56376;53.356;-1.748;2023-12-20T06:45:25;8.55;;;3.08;;
69256;SDS011;56376;53.356;-1.748;2023-12-20T06:47:51;10.75;;;2.72;;
69256;SDS011;56376;53.356;-1.748;2023-12-20T06:53:04;13.32;;;2.83;;
69256;SDS011;56376;53.356;-1.748;2023-12-20T06:55:32;11.27;;;2.40;;
69256;SDS011;56376;53.356;-1.748;2023-12-20T06:57:58;14.70;;;3.00;;
69256;SDS011;56376;53.356;-1.748;2023-12-20T07:00:26;10.32;;;2.65;;
69256;SDS011;56376;53.356;-1.748;2023-12-20T07:02:51;11.45;;;3.05;;
69256;SDS011;56376;53.356;-1.748;2023-12-20T07:05:17;8.70;;;2.40;;
69256;SDS011;56376;53.356;-1.748;2023-12-20T07:07:45;12.82;;;2.92;;
69256;SDS011;56376;53.356;-1.748;2023-12-20T07:12:56;10.93;;;3.10;;
69256;SDS011;56376;53.356;-1.748;2023-12-20T07:15:22;11.77;;;3.50;;
69256;SDS011;56376;53.356;-1.748;2023-12-20T07:17:48;14.45;;;3.00;;
69256;SDS011;56376;53.356;-1.748;2023-12-20T07:20:15;11.20;;;2.88;;
69256;SDS011;56376;53.356;-1.748;2023-12-20T07:22:41;10.45;;;2.33;;
69256;SDS011;56376;53.356;-1.748;2023-12-20T07:25:07;4.68;;;1.80;;
69256;SDS011;56376;53.356;-1.748;2023-12-20T07:27:33;7.03;;;2.92;;
69256;SDS011;56376;53.356;-1.748;2023-12-20T07:29:58;5.72;;;1.45;;
69256;SDS011;56376;53.356;-1.748;2023-12-20T07:32:24;7.85;;;2.03;;
69256;SDS011;56376;53.356;-1.748;2023-12-20T07:34:49;6.20;;;1.60;;
69256;SDS011;56376;53.356;-1.748;2023-12-20T07:37:15;3.20;;;1.23;;
69256;SDS011;56376;53.356;-1.748;2023-12-20T07:39:42;8.40;;;1.63;;
69256;SDS011;56376;53.356;-1.748;2023-12-20T07:42:08;6.45;;;1.83;;
69256;SDS011;56376;53.356;-1.748;2023-12-20T07:44:34;8.10;;;2.22;;
69256;SDS011;56376;53.356;-1.748;2023-12-20T07:47:00;9.30;;;3.03;;
69256;SDS011;56376;53.356;-1.748;2023-12-20T07:49:27;10.52;;;2.53;;
69256;SDS011;56376;53.356;-1.748;2023-12-20T07:51:53;11.00;;;2.17;;
69256;SDS011;56376;53.356;-1.748;2023-12-20T07:54:18;9.43;;;2.42;;
69256;SDS011;56376;53.356;-1.748;2023-12-20T07:56:45;10.00;;;2.30;;
69256;SDS011;56376;53.356;-1.748;2023-12-20T07:59:11;10.18;;;2.40;;
69256;SDS011;56376;53.356;-1.748;2023-12-20T08:01:37;10.98;;;3.00;;
69256;SDS011;56376;53.356;-1.748;2023-12-20T08:04:03;9.40;;;2.47;;
69256;SDS011;56376;53.356;-1.748;2023-12-20T08:06:28;9.00;;;2.70;;
69256;SDS011;56376;53.356;-1.748;2023-12-20T08:08:54;8.20;;;2.42;;
69256;SDS011;56376;53.356;-1.748;2023-12-20T08:11:19;10.10;;;2.05;;
69256;SDS011;56376;53.356;-1.748;2023-12-20T08:13:45;6.15;;;1.73;;
69256;SDS011;56376;53.356;-1.748;2023-12-20T08:16:10;13.95;;;3.20;;
69256;SDS011;56376;53.356;-1.748;2023-12-20T08:18:38;8.30;;;2.20;;
69256;SDS011;56376;53.356;-1.748;2023-12-20T08:23:48;7.03;;;2.03;;
69256;SDS011;56376;53.356;-1.748;2023-12-20T08:26:14;9.02;;;1.92;;
69256;SDS011;56376;53.356;-1.748;2023-12-20T08:28:46;8.45;;;1.92;;
69256;SDS011;56376;53.356;-1.748;2023-12-20T08:31:16;8.25;;;2.13;;
69256;SDS011;56376;53.356;-1.748;2023-12-20T08:33:43;6.47;;;1.85;;
69256;SDS011;56376;53.356;-1.748;2023-12-20T08:36:09;10.82;;;2.50;;
69256;SDS011;56376;53.356;-1.748;2023-12-20T08:38:35;9.38;;;2.00;;
69256;SDS011;56376;53.356;-1.748;2023-12-20T08:41:01;7.80;;;2.30;;
69256;SDS011;56376;53.356;-1.748;2023-12-20T08:43:28;19.02;;;3.58;;
69256;SDS011;56376;53.356;-1.748;2023-12-20T08:45:54;18.85;;;3.85;;
69256;SDS011;56376;53.356;-1.748;2023-12-20T08:48:19;6.82;;;2.70;;
69256;SDS011;56376;53.356;-1.748;2023-12-20T08:50:45;13.77;;;2.72;;
69256;SDS011;56376;53.356;-1.748;2023-12-20T08:53:11;8.13;;;2.28;;
69256;SDS011;56376;53.356;-1.748;2023-12-20T08:55:36;6.20;;;2.50;;
69256;SDS011;56376;53.356;-1.748;2023-12-20T08:58:02;10.70;;;2.75;;
69256;SDS011;56376;53.356;-1.748;2023-12-20T09:00:27;15.30;;;3.53;;
69256;SDS011;56376;53.356;-1.748;2023-12-20T09:02:54;10.30;;;2.55;;
69256;SDS011;56376;53.356;-1.748;2023-12-20T09:05:20;10.25;;;2.13;;
69256;SDS011;56376;53.356;-1.748;2023-12-20T09:07:45;11.32;;;2.67;;
69256;SDS011;56376;53.356;-1.748;2023-12-20T09:10:11;12.80;;;2.30;;
69256;SDS011;56376;53.356;-1.748;2023-12-20T09:12:36;10.07;;;2.63;;
69256;SDS011;56376;53.356;-1.748;2023-12-20T09:15:05;6.30;;;1.90;;
69256;SDS011;56376;53.356;-1.748;2023-12-20T09:17:30;4.13;;;1.45;;
69256;SDS011;56376;53.356;-1.748;2023-12-20T09:19:56;5.68;;;1.65;;
69256;SDS011;56376;53.356;-1.748;2023-12-20T09:22:21;4.57;;;1.58;;
69256;SDS011;56376;53.356;-1.748;2023-12-20T09:24:47;3.55;;;1.33;;
69256;SDS011;56376;53.356;-1.748;2023-12-20T09:27:12;6.07;;;1.55;;
69256;SDS011;56376;53.356;-1.748;2023-12-20T09:29:39;7.05;;;2.17;;
69256;SDS011;56376;53.356;-1.748;2023-12-20T09:32:04;9.30;;;1.67;;
69256;SDS011;56376;53.356;-1.748;2023-12-20T09:34:30;3.08;;;1.13;;
69256;SDS011;56376;53.356;-1.748;2023-12-20T09:36:56;5.18;;;1.45;;
69256;SDS011;56376;53.356;-1.748;2023-12-20T09:39:21;2.30;;;1.13;;
69256;SDS011;56376;53.356;-1.748;2023-12-20T09:44:28;10.23;;;2.50;;
69256;SDS011;56376;53.356;-1.748;2023-12-20T09:46:55;7.80;;;2.58;;
69256;SDS011;56376;53.356;-1.748;2023-12-20T09:49:22;8.27;;;1.90;;
69256;SDS011;56376;53.356;-1.748;2023-12-20T09:51:48;4.07;;;1.63;;
69256;SDS011;56376;53.356;-1.748;2023-12-20T09:54:18;5.15;;;1.55;;
69256;SDS011;56376;53.356;-1.748;2023-12-20T09:56:45;5.03;;;2.50;;
69256;SDS011;56376;53.356;-1.748;2023-12-20T09:59:11;3.33;;;1.10;;
69256;SDS011;56376;53.356;-1.748;2023-12-20T10:01:37;5.28;;;1.60;;
69256;SDS011;56376;53.356;-1.748;2023-12-20T10:04:05;3.65;;;1.17;;
69256;SDS011;56376;53.356;-1.748;2023-12-20T10:06:43;5.75;;;1.67;;
69256;SDS011;56376;53.356;-1.748;2023-12-20T10:09:09;3.38;;;1.27;;
69256;SDS011;56376;53.356;-1.748;2023-12-20T10:11:36;4.53;;;1.38;;
69256;SDS011;56376;53.356;-1.748;2023-12-20T10:14:06;3.25;;;0.93;;
69256;SDS011;56376;53.356;-1.748;2023-12-20T10:16:32;1.92;;;0.98;;
69256;SDS011;56376;53.356;-1.748;2023-12-20T10:18:59;2.95;;;1.25;;
69256;SDS011;56376;53.356;-1.748;2023-12-20T10:21:30;3.25;;;0.70;;
69256;SDS011;56376;53.356;-1.748;2023-12-20T10:23:56;0.90;;;0.70;;
69256;SDS011;56376;53.356;-1.748;2023-12-20T10:26:22;2.85;;;0.50;;
69256;SDS011;56376;53.356;-1.748;2023-12-20T10:28:59;1.05;;;0.90;;
69256;SDS011;56376;53.356;-1.748;2023-12-20T10:34:12;2.53;;;0.52;;
69256;SDS011;56376;53.356;-1.748;2023-12-20T10:36:37;1.75;;;1.05;;
69256;SDS011;56376;53.356;-1.748;2023-12-20T10:39:03;0.90;;;0.60;;
69256;SDS011;56376;53.356;-1.748;2023-12-20T10:44:18;2.40;;;0.63;;
69256;SDS011;56376;53.356;-1.748;2023-12-20T10:46:43;1.20;;;0.80;;
69256;SDS011;56376;53.356;-1.748;2023-12-20T10:49:16;1.13;;;0.63;;
69256;SDS011;56376;53.356;-1.748;2023-12-20T10:51:43;0.98;;;0.73;;
69256;SDS011;56376;53.356;-1.748;2023-12-20T10:54:11;1.10;;;1.00;;
69256;SDS011;56376;53.356;-1.748;2023-12-20T10:56:36;2.15;;;1.00;;
69256;SDS011;56376;53.356;-1.748;2023-12-20T10:59:03;6.15;;;1.50;;
69256;SDS011;56376;53.356;-1.748;2023-12-20T11:01:31;6.00;;;1.50;;
69256;SDS011;56376;53.356;-1.748;2023-12-20T11:03:58;5.20;;;1.60;;
69256;SDS011;56376;53.356;-1.748;2023-12-20T11:06:36;10.40;;;1.88;;
69256;SDS011;56376;53.356;-1.748;2023-12-20T11:09:17;9.57;;;2.50;;
69256;SDS011;56376;53.356;-1.748;2023-12-20T11:12:04;8.90;;;2.17;;
69256;SDS011;56376;53.356;-1.748;2023-12-20T11:14:33;13.18;;;3.03;;
69256;SDS011;56376;53.356;-1.748;2023-12-20T11:17:09;9.90;;;2.22;;
69256;SDS011;56376;53.356;-1.748;2023-12-20T11:22:30;10.45;;;2.38;;
69256;SDS011;56376;53.356;-1.748;2023-12-20T11:25:09;8.15;;;2.20;;
69256;SDS011;56376;53.356;-1.748;2023-12-20T11:27:42;12.07;;;2.20;;
69256;SDS011;56376;53.356;-1.748;2023-12-20T11:30:09;10.48;;;3.00;;
69256;SDS011;56376;53.356;-1.748;2023-12-20T11:32:35;13.45;;;3.53;;
69256;SDS011;56376;53.356;-1.748;2023-12-20T11:35:22;13.82;;;2.70;;
69256;SDS011;56376;53.356;-1.748;2023-12-20T11:37:48;13.55;;;2.50;;
69256;SDS011;56376;53.356;-1.748;2023-12-20T11:40:15;13.30;;;3.80;;
69256;SDS011;56376;53.356;-1.748;2023-12-20T11:42:42;13.57;;;2.95;;
69256;SDS011;56376;53.356;-1.748;2023-12-20T11:45:14;10.13;;;2.45;;
69256;SDS011;56376;53.356;-1.748;2023-12-20T11:47:45;14.55;;;3.40;;
69256;SDS011;56376;53.356;-1.748;2023-12-20T11:50:12;13.48;;;3.35;;
69256;SDS011;56376;53.356;-1.748;2023-12-20T11:52:38;10.50;;;2.80;;
69256;SDS011;56376;53.356;-1.748;2023-12-20T11:55:03;6.75;;;2.40;;
69256;SDS011;56376;53.356;-1.748;2023-12-20T11:57:30;10.13;;;2.85;;
69256;SDS011;56376;53.356;-1.748;2023-12-20T11:59:56;11.35;;;3.47;;
69256;SDS011;56376;53.356;-1.748;2023-12-20T12:02:22;8.25;;;2.38;;
69256;SDS011;56376;53.356;-1.748;2023-12-20T12:04:49;10.88;;;2.42;;
69256;SDS011;56376;53.356;-1.748;2023-12-20T12:07:17;10.63;;;2.47;;
69256;SDS011;56376;53.356;-1.748;2023-12-20T12:09:44;9.63;;;2.30;;
69256;SDS011;56376;53.356;-1.748;2023-12-20T12:12:11;8.68;;;2.50;;
69256;SDS011;56376;53.356;-1.748;2023-12-20T12:14:38;9.15;;;2.10;;
69256;SDS011;56376;53.356;-1.748;2023-12-20T12:17:09;8.40;;;2.55;;
69256;SDS011;56376;53.356;-1.748;2023-12-20T12:22:27;8.40;;;2.38;;
69256;SDS011;56376;53.356;-1.748;2023-12-20T12:24:53;10.63;;;2.78;;
69256;SDS011;56376;53.356;-1.748;2023-12-20T12:27:19;11.57;;;2.60;;
69256;SDS011;56376;53.356;-1.748;2023-12-20T12:30:18;9.73;;;2.78;;
69256;SDS011;56376;53.356;-1.748;2023-12-20T12:32:38;5.88;;;2.65;;
69256;SDS011;56376;53.356;-1.748;2023-12-20T12:35:04;14.40;;;2.38;;
69256;SDS011;56376;53.356;-1.748;2023-12-20T12:37:34;6.38;;;2.03;;
69256;SDS011;56376;53.356;-1.748;2023-12-20T12:40:03;7.22;;;1.80;;
69256;SDS011;56376;53.356;-1.748;2023-12-20T12:42:30;8.30;;;2.80;;
69256;SDS011;56376;53.356;-1.748;2023-12-20T12:44:55;7.05;;;2.38;;
69256;SDS011;56376;53.356;-1.748;2023-12-20T12:47:21;5.20;;;1.63;;
69256;SDS011;56376;53.356;-1.748;2023-12-20T12:49:47;5.35;;;1.63;;
69256;SDS011;56376;53.356;-1.748;2023-12-20T12:52:16;6.22;;;1.90;;
69256;SDS011;56376;53.356;-1.748;2023-12-20T12:54:41;5.97;;;1.80;;
69256;SDS011;56376;53.356;-1.748;2023-12-20T12:57:07;3.88;;;1.58;;
69256;SDS011;56376;53.356;-1.748;2023-12-20T12:59:33;4.90;;;1.42;;
69256;SDS011;56376;53.356;-1.748;2023-12-20T13:01:59;6.40;;;1.90;;
69256;SDS011;56376;53.356;-1.748;2023-12-20T13:04:24;4.50;;;1.70;;
69256;SDS011;56376;53.356;-1.748;2023-12-20T13:06:49;8.38;;;2.15;;
69256;SDS011;56376;53.356;-1.748;2023-12-20T13:09:15;9.10;;;2.40;;
69256;SDS011;56376;53.356;-1.748;2023-12-20T13:11:40;7.82;;;2.42;;
69256;SDS011;56376;53.356;-1.748;2023-12-20T13:14:06;4.95;;;1.60;;
69256;SDS011;56376;53.356;-1.748;2023-12-20T13:16:35;5.78;;;1.20;;
69256;SDS011;56376;53.356;-1.748;2023-12-20T13:19:01;7.25;;;1.80;;
69256;SDS011;56376;53.356;-1.748;2023-12-20T13:21:26;10.35;;;2.97;;
69256;SDS011;56376;53.356;-1.748;2023-12-20T13:23:52;5.65;;;1.83;;
69256;SDS011;56376;53.356;-1.748;2023-12-20T13:26:18;8.02;;;2.10;;
69256;SDS011;56376;53.356;-1.748;2023-12-20T13:28:44;6.93;;;1.83;;
69256;SDS011;56376;53.356;-1.748;2023-12-20T13:31:10;6.70;;;2.33;;
69256;SDS011;56376;53.356;-1.748;2023-12-20T13:33:35;6.68;;;2.85;;
69256;SDS011;56376;53.356;-1.748;2023-12-20T13:36:01;8.57;;;3.25;;
69256;SDS011;56376;53.356;-1.748;2023-12-20T13:38:26;8.40;;;2.53;;
69256;SDS011;56376;53.356;-1.748;2023-12-20T13:40:52;4.32;;;1.95;;
69256;SDS011;56376;53.356;-1.748;2023-12-20T13:43:17;5.30;;;2.33;;
69256;SDS011;56376;53.356;-1.748;2023-12-20T13:45:46;5.38;;;2.33;;
69256;SDS011;56376;53.356;-1.748;2023-12-20T13:48:12;8.75;;;1.98;;
69256;SDS011;56376;53.356;-1.748;2023-12-20T13:55:47;5.03;;;1.70;;
69256;SDS011;56376;53.356;-1.748;2023-12-20T13:58:12;4.68;;;1.63;;
69256;SDS011;56376;53.356;-1.748;2023-12-20T14:00:40;6.40;;;1.73;;
69256;SDS011;56376;53.356;-1.748;2023-12-20T14:03:05;5.40;;;1.52;;
69256;SDS011;56376;53.356;-1.748;2023-12-20T14:05:31;7.55;;;2.05;;
69256;SDS011;56376;53.356;-1.748;2023-12-20T14:07:57;6.95;;;1.85;;
69256;SDS011;56376;53.356;-1.748;2023-12-20T14:10:25;6.20;;;2.40;;
69256;SDS011;56376;53.356;-1.748;2023-12-20T14:12:52;8.13;;;2.58;;
69256;SDS011;56376;53.356;-1.748;2023-12-20T14:15:18;6.70;;;1.77;;
69256;SDS011;56376;53.356;-1.748;2023-12-20T14:17:43;7.30;;;1.75;;
69256;SDS011;56376;53.356;-1.748;2023-12-20T14:20:10;4.55;;;1.52;;
69256;SDS011;56376;53.356;-1.748;2023-12-20T14:22:38;3.80;;;1.60;;
69256;SDS011;56376;53.356;-1.748;2023-12-20T14:25:04;8.55;;;2.35;;
69256;SDS011;56376;53.356;-1.748;2023-12-20T14:27:31;3.92;;;1.10;;
69256;SDS011;56376;53.356;-1.748;2023-12-20T14:29:57;7.70;;;1.25;;
69256;SDS011;56376;53.356;-1.748;2023-12-20T14:32:23;5.15;;;1.63;;
69256;SDS011;56376;53.356;-1.748;2023-12-20T14:34:51;4.47;;;1.27;;
69256;SDS011;56376;53.356;-1.748;2023-12-20T14:37:17;4.03;;;1.52;;
69256;SDS011;56376;53.356;-1.748;2023-12-20T14:39:43;6.13;;;2.13;;
69256;SDS011;56376;53.356;-1.748;2023-12-20T14:42:09;5.53;;;1.77;;
69256;SDS011;56376;53.356;-1.748;2023-12-20T14:44:42;6.32;;;1.50;;
69256;SDS011;56376;53.356;-1.748;2023-12-20T14:47:08;3.53;;;1.90;;
69256;SDS011;56376;53.356;-1.748;2023-12-20T14:49:34;7.35;;;2.00;;
69256;SDS011;56376;53.356;-1.748;2023-12-20T14:52:00;6.82;;;1.90;;
69256;SDS011;56376;53.356;-1.748;2023-12-20T14:54:26;9.85;;;2.60;;